sensor_id;sensor_type;location;lat;lon;timestamp;pressure;altitude;pressure_sealevel;temperature;humidity
55289;BME280;41154;45.394;5.734;2023-10-13T00:00:29;97371.34;;;9.89;100.00
55289;BME280;41154;45.394;5.734;2023-10-13T00:02:58;97373.44;;;9.87;100.00
55289;BME280;41154;45.394;5.734;2023-10-13T00:05:30;97366.69;;;9.84;100.00
55289;BME280;41154;45.394;5.734;2023-10-13T00:08:00;97370.44;;;9.83;100.00
55289;BME280;41154;45.394;5.734;2023-10-13T00:10:29;97374.72;;;9.84;100.00
55289;BME280;41154;45.394;5.734;2023-10-13T00:12:55;97371.97;;;10.08;100.00
55289;BME280;41154;45.394;5.734;2023-10-13T00:15:32;97367.25;;;9.98;100.00
55289;BME280;41154;45.394;5.734;2023-10-13T00:18:05;97371.97;;;10.08;100.00
55289;BME280;41154;45.394;5.734;2023-10-13T00:20:39;97380.22;;;9.89;100.00
55289;BME280;41154;45.394;5.734;2023-10-13T00:23:05;97371.69;;;9.93;100.00
55289;BME280;41154;45.394;5.734;2023-10-13T00:25:31;97377.31;;;9.79;100.00
55289;BME280;41154;45.394;5.734;2023-10-13T00:28:05;97380.44;;;9.88;100.00
55289;BME280;41154;45.394;5.734;2023-10-13T00:30:35;97387.63;;;9.99;100.00
55289;BME280;41154;45.394;5.734;2023-10-13T00:33:02;97379.03;;;9.85;100.00
55289;BME280;41154;45.394;5.734;2023-10-13T00:35:30;97386.03;;;9.86;100.00
55289;BME280;41154;45.394;5.734;2023-10-13T00:38:05;97378.56;;;9.77;100.00
55289;BME280;41154;45.394;5.734;2023-10-13T00:40:42;97388.03;;;9.79;100.00
55289;BME280;41154;45.394;5.734;2023-10-13T00:43:19;97384.41;;;9.74;100.00
55289;BME280;41154;45.394;5.734;2023-10-13T00:45:52;97382.44;;;9.69;100.00
55289;BME280;41154;45.394;5.734;2023-10-13T00:48:30;97376.97;;;9.76;100.00
55289;BME280;41154;45.394;5.734;2023-10-13T00:51:04;97386.38;;;9.90;100.00
55289;BME280;41154;45.394;5.734;2023-10-13T00:53:35;97381.06;;;9.66;100.00
55289;BME280;41154;45.394;5.734;2023-10-13T00:56:08;97376.97;;;9.52;100.00
55289;BME280;41154;45.394;5.734;2023-10-13T00:58:45;97369.66;;;9.47;100.00
55289;BME280;41154;45.394;5.734;2023-10-13T01:01:23;97366.03;;;9.42;100.00
55289;BME280;41154;45.394;5.734;2023-10-13T01:04:10;97364.75;;;9.56;100.00
55289;BME280;41154;45.394;5.734;2023-10-13T01:06:39;97364.19;;;9.54;100.00
55289;BME280;41154;45.394;5.734;2023-10-13T01:09:09;97367.09;;;9.52;100.00
55289;BME280;41154;45.394;5.734;2023-10-13T01:11:49;97364.06;;;9.37;100.00
55289;BME280;41154;45.394;5.734;2023-10-13T01:14:18;97357.31;;;9.34;100.00
55289;BME280;41154;45.394;5.734;2023-10-13T01:16:49;97354.41;;;9.48;100.00
55289;BME280;41154;45.394;5.734;2023-10-13T01:19:19;97359.53;;;9.49;100.00
55289;BME280;41154;45.394;5.734;2023-10-13T01:21:51;97355.91;;;9.44;100.00
55289;BME280;41154;45.394;5.734;2023-10-13T01:24:28;97352.88;;;9.40;100.00
55289;BME280;41154;45.394;5.734;2023-10-13T01:26:57;97349.72;;;9.55;100.00
55289;BME280;41154;45.394;5.734;2023-10-13T01:29:24;97355.78;;;9.50;100.00
55289;BME280;41154;45.394;5.734;2023-10-13T01:31:54;97354.53;;;9.41;100.00
55289;BME280;41154;45.394;5.734;2023-10-13T01:34:20;97352.19;;;9.33;100.00
55289;BME280;41154;45.394;5.734;2023-10-13T01:36:50;97356.16;;;9.18;100.00
55289;BME280;41154;45.394;5.734;2023-10-13T01:39:20;97354.03;;;9.21;100.00
55289;BME280;41154;45.394;5.734;2023-10-13T01:41:53;97356.25;;;9.24;100.00
55289;BME280;41154;45.394;5.734;2023-10-13T01:44:23;97352.31;;;9.26;100.00
55289;BME280;41154;45.394;5.734;2023-10-13T01:46:48;97350.31;;;9.10;100.00
55289;BME280;41154;45.394;5.734;2023-10-13T01:49:14;97351.84;;;9.06;100.00
55289;BME280;41154;45.394;5.734;2023-10-13T01:51:44;97347.88;;;9.08;100.00
55289;BME280;41154;45.394;5.734;2023-10-13T01:54:13;97343.13;;;9.10;100.00
55289;BME280;41154;45.394;5.734;2023-10-13T01:56:41;97339.63;;;9.22;100.00
55289;BME280;41154;45.394;5.734;2023-10-13T01:59:16;97344.50;;;9.25;100.00
55289;BME280;41154;45.394;5.734;2023-10-13T02:01:49;97338.34;;;9.24;100.00
55289;BME280;41154;45.394;5.734;2023-10-13T02:04:17;97342.50;;;9.08;100.00
55289;BME280;41154;45.394;5.734;2023-10-13T02:06:48;97336.81;;;9.05;100.00
55289;BME280;41154;45.394;5.734;2023-10-13T02:09:28;97328.44;;;9.01;100.00
55289;BME280;41154;45.394;5.734;2023-10-13T02:12:01;97329.72;;;8.98;100.00
55289;BME280;41154;45.394;5.734;2023-10-13T02:14:32;97328.78;;;9.05;100.00
55289;BME280;41154;45.394;5.734;2023-10-13T02:17:05;97334.50;;;8.96;100.00
55289;BME280;41154;45.394;5.734;2023-10-13T02:19:40;97327.16;;;8.92;100.00
55289;BME280;41154;45.394;5.734;2023-10-13T02:22:14;97329.38;;;8.95;100.00
55289;BME280;41154;45.394;5.734;2023-10-13T02:25:01;97331.09;;;8.89;100.00
55289;BME280;41154;45.394;5.734;2023-10-13T02:27:36;97325.19;;;8.87;100.00
55289;BME280;41154;45.394;5.734;2023-10-13T02:30:12;97320.06;;;8.86;100.00
55289;BME280;41154;45.394;5.734;2023-10-13T02:32:41;97327.03;;;8.87;100.00
55289;BME280;41154;45.394;5.734;2023-10-13T02:35:09;97319.13;;;8.92;100.00
55289;BME280;41154;45.394;5.734;2023-10-13T02:37:41;97318.31;;;8.91;100.00
55289;BME280;41154;45.394;5.734;2023-10-13T02:40:11;97317.59;;;8.96;100.00
55289;BME280;41154;45.394;5.734;2023-10-13T02:42:37;97323.69;;;8.91;100.00
55289;BME280;41154;45.394;5.734;2023-10-13T02:45:05;97321.94;;;8.85;100.00
55289;BME280;41154;45.394;5.734;2023-10-13T02:47:31;97316.56;;;8.85;100.00
55289;BME280;41154;45.394;5.734;2023-10-13T02:49:57;97323.75;;;8.85;100.00
55289;BME280;41154;45.394;5.734;2023-10-13T02:52:36;97307.03;;;8.77;100.00
55289;BME280;41154;45.394;5.734;2023-10-13T02:55:10;97311.00;;;8.87;100.00
55289;BME280;41154;45.394;5.734;2023-10-13T02:57:39;97314.81;;;8.79;100.00
55289;BME280;41154;45.394;5.734;2023-10-13T03:00:08;97317.03;;;8.82;100.00
55289;BME280;41154;45.394;5.734;2023-10-13T03:02:42;97309.69;;;8.77;100.00
55289;BME280;41154;45.394;5.734;2023-10-13T03:05:23;97311.44;;;8.72;100.00
55289;BME280;41154;45.394;5.734;2023-10-13T03:07:49;97306.19;;;8.77;100.00
55289;BME280;41154;45.394;5.734;2023-10-13T03:10:16;97305.50;;;8.70;100.00
55289;BME280;41154;45.394;5.734;2023-10-13T03:12:44;97302.09;;;8.62;100.00
55289;BME280;41154;45.394;5.734;2023-10-13T03:15:14;97296.41;;;8.59;100.00
55289;BME280;41154;45.394;5.734;2023-10-13T03:17:44;97297.09;;;8.66;100.00
55289;BME280;41154;45.394;5.734;2023-10-13T03:20:14;97289.22;;;8.71;100.00
55289;BME280;41154;45.394;5.734;2023-10-13T03:22:42;97294.34;;;8.73;100.00
55289;BME280;41154;45.394;5.734;2023-10-13T03:25:11;97288.75;;;8.74;100.00
55289;BME280;41154;45.394;5.734;2023-10-13T03:27:43;97299.56;;;8.68;100.00
55289;BME280;41154;45.394;5.734;2023-10-13T03:30:19;97292.47;;;8.73;100.00
55289;BME280;41154;45.394;5.734;2023-10-13T03:32:47;97302.13;;;8.74;100.00
55289;BME280;41154;45.394;5.734;2023-10-13T03:35:20;97297.72;;;8.68;100.00
55289;BME280;41154;45.394;5.734;2023-10-13T03:37:56;97301.19;;;8.69;100.00
55289;BME280;41154;45.394;5.734;2023-10-13T03:40:23;97297.25;;;8.71;100.00
55289;BME280;41154;45.394;5.734;2023-10-13T03:42:53;97299.44;;;8.62;100.00
55289;BME280;41154;45.394;5.734;2023-10-13T03:45:41;97293.06;;;8.63;100.00
55289;BME280;41154;45.394;5.734;2023-10-13T03:48:13;97301.31;;;8.74;100.00
55289;BME280;41154;45.394;5.734;2023-10-13T03:50:58;97286.78;;;8.70;100.00
55289;BME280;41154;45.394;5.734;2023-10-13T03:53:28;97292.81;;;8.65;100.00
55289;BME280;41154;45.394;5.734;2023-10-13T03:56:02;97292.00;;;8.64;100.00
55289;BME280;41154;45.394;5.734;2023-10-13T03:58:41;97286.63;;;8.64;100.00
55289;BME280;41154;45.394;5.734;2023-10-13T04:01:14;97280.59;;;8.57;100.00
55289;BME280;41154;45.394;5.734;2023-10-13T04:03:42;97287.09;;;8.61;100.00
55289;BME280;41154;45.394;5.734;2023-10-13T04:06:25;97292.13;;;8.70;100.00
55289;BME280;41154;45.394;5.734;2023-10-13T04:09:29;97296.31;;;8.66;100.00
55289;BME280;41154;45.394;5.734;2023-10-13T04:12:05;97280.81;;;8.68;100.00
55289;BME280;41154;45.394;5.734;2023-10-13T04:14:44;97287.78;;;8.57;100.00
55289;BME280;41154;45.394;5.734;2023-10-13T04:17:10;97281.28;;;8.53;100.00
55289;BME280;41154;45.394;5.734;2023-10-13T04:19:48;97278.25;;;8.49;100.00
55289;BME280;41154;45.394;5.734;2023-10-13T04:22:40;97275.34;;;8.51;100.00
55289;BME280;41154;45.394;5.734;2023-10-13T04:25:16;97273.03;;;8.54;100.00
55289;BME280;41154;45.394;5.734;2023-10-13T04:28:13;97279.75;;;8.45;100.00
55289;BME280;41154;45.394;5.734;2023-10-13T04:30:46;97285.94;;;8.57;100.00
55289;BME280;41154;45.394;5.734;2023-10-13T04:33:31;97283.47;;;8.44;100.00
55289;BME280;41154;45.394;5.734;2023-10-13T04:36:24;97281.22;;;8.41;100.00
55289;BME280;41154;45.394;5.734;2023-10-13T04:38:54;97279.91;;;8.32;100.00
55289;BME280;41154;45.394;5.734;2023-10-13T04:44:23;97291.75;;;8.54;100.00
55289;BME280;41154;45.394;5.734;2023-10-13T04:46:56;97271.28;;;8.48;100.00
55289;BME280;41154;45.394;5.734;2023-10-13T04:49:30;97275.78;;;8.48;100.00
55289;BME280;41154;45.394;5.734;2023-10-13T04:52:08;97278.69;;;8.46;100.00
55289;BME280;41154;45.394;5.734;2023-10-13T04:54:39;97274.75;;;8.49;100.00
55289;BME280;41154;45.394;5.734;2023-10-13T04:57:23;97277.78;;;8.52;100.00
55289;BME280;41154;45.394;5.734;2023-10-13T04:59:53;97276.41;;;8.50;100.00
55289;BME280;41154;45.394;5.734;2023-10-13T05:02:42;97274.41;;;8.57;100.00
55289;BME280;41154;45.394;5.734;2023-10-13T05:05:27;97268.59;;;8.48;100.00
55289;BME280;41154;45.394;5.734;2023-10-13T05:08:19;97278.88;;;8.33;100.00
55289;BME280;41154;45.394;5.734;2023-10-13T05:11:04;97274.69;;;8.25;100.00
55289;BME280;41154;45.394;5.734;2023-10-13T05:13:49;97266.56;;;8.32;100.00
55289;BME280;41154;45.394;5.734;2023-10-13T05:16:33;97272.09;;;8.49;100.00
55289;BME280;41154;45.394;5.734;2023-10-13T05:19:17;97273.66;;;8.26;100.00
55289;BME280;41154;45.394;5.734;2023-10-13T05:22:02;97273.53;;;8.33;100.00
55289;BME280;41154;45.394;5.734;2023-10-13T05:24:46;97273.44;;;8.39;100.00
55289;BME280;41154;45.394;5.734;2023-10-13T05:27:30;97275.72;;;8.24;100.00
55289;BME280;41154;45.394;5.734;2023-10-13T05:30:15;97280.25;;;8.23;100.00
55289;BME280;41154;45.394;5.734;2023-10-13T05:32:59;97279.00;;;8.26;100.00
55289;BME280;41154;45.394;5.734;2023-10-13T05:35:44;97284.56;;;8.24;100.00
55289;BME280;41154;45.394;5.734;2023-10-13T05:38:28;97277.81;;;8.22;100.00
55289;BME280;41154;45.394;5.734;2023-10-13T05:41:12;97275.63;;;8.31;100.00
55289;BME280;41154;45.394;5.734;2023-10-13T05:43:57;97285.50;;;8.30;100.00
55289;BME280;41154;45.394;5.734;2023-10-13T05:46:41;97278.44;;;8.36;100.00
55289;BME280;41154;45.394;5.734;2023-10-13T05:49:45;97281.78;;;8.31;100.00
55289;BME280;41154;45.394;5.734;2023-10-13T05:52:30;97283.88;;;8.29;100.00
55289;BME280;41154;45.394;5.734;2023-10-13T05:55:14;97288.84;;;8.25;100.00
55289;BME280;41154;45.394;5.734;2023-10-13T05:57:58;97289.56;;;8.33;100.00
55289;BME280;41154;45.394;5.734;2023-10-13T06:00:43;97285.16;;;8.26;100.00
55289;BME280;41154;45.394;5.734;2023-10-13T06:03:27;97292.75;;;8.41;100.00
55289;BME280;41154;45.394;5.734;2023-10-13T06:06:12;97294.75;;;8.46;100.00
55289;BME280;41154;45.394;5.734;2023-10-13T06:08:56;97294.66;;;8.53;100.00
55289;BME280;41154;45.394;5.734;2023-10-13T06:11:41;97295.22;;;8.55;100.00
55289;BME280;41154;45.394;5.734;2023-10-13T06:14:25;97302.22;;;8.68;100.00
55289;BME280;41154;45.394;5.734;2023-10-13T06:17:10;97297.13;;;8.78;100.00
55289;BME280;41154;45.394;5.734;2023-10-13T06:19:55;97297.47;;;8.81;100.00
55289;BME280;41154;45.394;5.734;2023-10-13T06:22:48;97300.50;;;8.97;100.00
55289;BME280;41154;45.394;5.734;2023-10-13T06:25:33;97303.22;;;9.09;100.00
55289;BME280;41154;45.394;5.734;2023-10-13T06:28:17;97304.25;;;9.08;100.00
55289;BME280;41154;45.394;5.734;2023-10-13T06:31:03;97307.72;;;9.08;100.00
55289;BME280;41154;45.394;5.734;2023-10-13T06:33:34;97308.44;;;9.27;100.00
55289;BME280;41154;45.394;5.734;2023-10-13T06:36:04;97314.50;;;9.23;100.00
55289;BME280;41154;45.394;5.734;2023-10-13T06:38:38;97315.53;;;9.33;100.00
55289;BME280;41154;45.394;5.734;2023-10-13T06:41:05;97322.50;;;9.34;100.00
55289;BME280;41154;45.394;5.734;2023-10-13T06:43:35;97324.59;;;9.44;100.00
55289;BME280;41154;45.394;5.734;2023-10-13T06:46:06;97324.00;;;9.54;100.00
55289;BME280;41154;45.394;5.734;2023-10-13T06:48:33;97330.03;;;9.61;100.00
55289;BME280;41154;45.394;5.734;2023-10-13T06:51:01;97322.38;;;9.53;100.00
55289;BME280;41154;45.394;5.734;2023-10-13T06:53:45;97321.56;;;9.52;100.00
55289;BME280;41154;45.394;5.734;2023-10-13T06:56:16;97317.25;;;9.63;100.00
55289;BME280;41154;45.394;5.734;2023-10-13T06:58:51;97324.34;;;9.69;100.00
55289;BME280;41154;45.394;5.734;2023-10-13T07:01:17;97310.81;;;9.64;100.00
55289;BME280;41154;45.394;5.734;2023-10-13T07:03:47;97325.13;;;9.70;100.00
55289;BME280;41154;45.394;5.734;2023-10-13T07:06:21;97316.38;;;9.75;100.00
55289;BME280;41154;45.394;5.734;2023-10-13T07:08:48;97324.53;;;9.80;100.00
55289;BME280;41154;45.394;5.734;2023-10-13T07:11:28;97324.06;;;9.83;100.00
55289;BME280;41154;45.394;5.734;2023-10-13T07:14:04;97326.63;;;9.78;100.00
55289;BME280;41154;45.394;5.734;2023-10-13T07:17:00;97326.03;;;9.87;100.00
55289;BME280;41154;45.394;5.734;2023-10-13T07:19:26;97326.72;;;9.83;100.00
55289;BME280;41154;45.394;5.734;2023-10-13T07:21:56;97331.03;;;9.84;100.00
55289;BME280;41154;45.394;5.734;2023-10-13T07:24:29;97332.56;;;9.80;100.00
55289;BME280;41154;45.394;5.734;2023-10-13T07:26:58;97326.06;;;9.76;100.00
55289;BME280;41154;45.394;5.734;2023-10-13T07:29:31;97335.84;;;9.82;100.00
55289;BME280;41154;45.394;5.734;2023-10-13T07:32:04;97334.91;;;9.88;100.00
55289;BME280;41154;45.394;5.734;2023-10-13T07:34:36;97335.06;;;9.98;100.00
55289;BME280;41154;45.394;5.734;2023-10-13T07:37:05;97340.53;;;10.03;100.00
55289;BME280;41154;45.394;5.734;2023-10-13T07:39:38;97333.00;;;10.29;100.00
55289;BME280;41154;45.394;5.734;2023-10-13T07:42:05;97336.63;;;10.23;100.00
55289;BME280;41154;45.394;5.734;2023-10-13T07:44:32;97329.13;;;10.83;100.00
55289;BME280;41154;45.394;5.734;2023-10-13T07:47:00;97346.09;;;14.73;100.00
55289;BME280;41154;45.394;5.734;2023-10-13T07:49:33;97352.22;;;17.32;100.00
55289;BME280;41154;45.394;5.734;2023-10-13T07:52:06;97351.88;;;18.97;99.30
55289;BME280;41154;45.394;5.734;2023-10-13T07:54:50;97355.06;;;19.51;94.22
55289;BME280;41154;45.394;5.734;2023-10-13T07:57:37;97343.22;;;21.26;83.31
55289;BME280;41154;45.394;5.734;2023-10-13T08:00:19;97339.44;;;20.91;85.02
55289;BME280;41154;45.394;5.734;2023-10-13T08:02:59;97335.41;;;21.96;76.69
55289;BME280;41154;45.394;5.734;2023-10-13T08:05:52;97330.56;;;22.42;74.37
55289;BME280;41154;45.394;5.734;2023-10-13T08:08:33;97332.97;;;21.54;77.94
55289;BME280;41154;45.394;5.734;2023-10-13T08:11:15;97324.97;;;22.82;73.65
55289;BME280;41154;45.394;5.734;2023-10-13T08:13:55;97333.81;;;22.79;72.10
55289;BME280;41154;45.394;5.734;2023-10-13T08:16:41;97324.00;;;23.78;70.97
55289;BME280;41154;45.394;5.734;2023-10-13T08:19:21;97326.41;;;23.23;72.06
55289;BME280;41154;45.394;5.734;2023-10-13T08:22:01;97324.72;;;24.55;69.15
55289;BME280;41154;45.394;5.734;2023-10-13T08:24:51;97325.53;;;24.56;67.17
55289;BME280;41154;45.394;5.734;2023-10-13T08:27:21;97332.66;;;22.36;72.64
55289;BME280;41154;45.394;5.734;2023-10-13T08:30:06;97330.84;;;23.54;72.84
55289;BME280;41154;45.394;5.734;2023-10-13T08:32:50;97319.81;;;24.19;72.17
55289;BME280;41154;45.394;5.734;2023-10-13T08:35:29;97325.75;;;23.82;73.48
55289;BME280;41154;45.394;5.734;2023-10-13T08:37:55;97325.22;;;24.28;71.65
55289;BME280;41154;45.394;5.734;2023-10-13T08:40:26;97327.69;;;23.35;74.00
55289;BME280;41154;45.394;5.734;2023-10-13T08:43:11;97322.22;;;24.41;71.46
55289;BME280;41154;45.394;5.734;2023-10-13T08:45:39;97318.19;;;23.23;76.74
55289;BME280;41154;45.394;5.734;2023-10-13T08:48:06;97313.53;;;23.80;72.92
55289;BME280;41154;45.394;5.734;2023-10-13T08:50:51;97315.91;;;25.46;69.46
55289;BME280;41154;45.394;5.734;2023-10-13T08:53:26;97320.75;;;26.36;65.01
55289;BME280;41154;45.394;5.734;2023-10-13T08:56:07;97314.88;;;24.33;68.91
55289;BME280;41154;45.394;5.734;2023-10-13T08:58:35;97308.81;;;24.91;71.29
55289;BME280;41154;45.394;5.734;2023-10-13T09:01:35;97309.88;;;24.05;70.43
55289;BME280;41154;45.394;5.734;2023-10-13T09:04:07;97307.41;;;22.31;76.00
55289;BME280;41154;45.394;5.734;2023-10-13T09:09:32;97306.75;;;21.76;85.85
55289;BME280;41154;45.394;5.734;2023-10-13T09:12:10;97300.75;;;21.34;95.62
55289;BME280;41154;45.394;5.734;2023-10-13T09:14:40;97300.03;;;21.19;99.00
55289;BME280;41154;45.394;5.734;2023-10-13T09:17:23;97302.34;;;21.04;100.00
55289;BME280;41154;45.394;5.734;2023-10-13T09:20:02;97298.00;;;20.43;100.00
55289;BME280;41154;45.394;5.734;2023-10-13T09:22:48;97296.16;;;20.53;100.00
55289;BME280;41154;45.394;5.734;2023-10-13T09:25:39;97289.91;;;20.52;100.00
55289;BME280;41154;45.394;5.734;2023-10-13T09:28:28;97290.09;;;20.56;100.00
55289;BME280;41154;45.394;5.734;2023-10-13T09:30:55;97294.03;;;20.50;100.00
55289;BME280;41154;45.394;5.734;2023-10-13T09:33:29;97286.56;;;20.05;100.00
55289;BME280;41154;45.394;5.734;2023-10-13T09:36:02;97283.72;;;19.68;100.00
55289;BME280;41154;45.394;5.734;2023-10-13T09:38:33;97286.53;;;19.49;100.00
55289;BME280;41154;45.394;5.734;2023-10-13T09:40:59;97283.94;;;20.14;100.00
55289;BME280;41154;45.394;5.734;2023-10-13T09:43:45;97285.63;;;20.23;100.00
55289;BME280;41154;45.394;5.734;2023-10-13T09:46:18;97280.13;;;20.01;100.00
55289;BME280;41154;45.394;5.734;2023-10-13T09:48:45;97283.97;;;20.36;100.00
55289;BME280;41154;45.394;5.734;2023-10-13T09:51:14;97276.97;;;20.21;100.00
55289;BME280;41154;45.394;5.734;2023-10-13T09:53:44;97278.69;;;19.75;100.00
55289;BME280;41154;45.394;5.734;2023-10-13T09:56:25;97285.84;;;19.57;100.00
55289;BME280;41154;45.394;5.734;2023-10-13T09:59:03;97272.56;;;19.98;100.00
55289;BME280;41154;45.394;5.734;2023-10-13T10:01:45;97266.72;;;20.27;100.00
55289;BME280;41154;45.394;5.734;2023-10-13T10:04:22;97268.78;;;20.21;100.00
55289;BME280;41154;45.394;5.734;2023-10-13T10:06:55;97263.06;;;20.45;100.00
55289;BME280;41154;45.394;5.734;2023-10-13T10:09:33;97266.16;;;20.16;100.00
55289;BME280;41154;45.394;5.734;2023-10-13T10:12:37;97258.72;;;20.08;100.00
55289;BME280;41154;45.394;5.734;2023-10-13T10:17:55;97260.22;;;20.14;100.00
55289;BME280;41154;45.394;5.734;2023-10-13T10:20:31;97254.72;;;19.78;100.00
55289;BME280;41154;45.394;5.734;2023-10-13T10:23:28;97253.97;;;20.14;100.00
55289;BME280;41154;45.394;5.734;2023-10-13T10:26:11;97252.19;;;20.32;100.00
55289;BME280;41154;45.394;5.734;2023-10-13T10:28:42;97248.44;;;20.05;100.00
55289;BME280;41154;45.394;5.734;2023-10-13T10:31:12;97260.09;;;20.19;100.00
55289;BME280;41154;45.394;5.734;2023-10-13T10:33:41;97253.63;;;20.29;100.00
55289;BME280;41154;45.394;5.734;2023-10-13T10:36:07;97248.22;;;20.15;100.00
55289;BME280;41154;45.394;5.734;2023-10-13T10:38:51;97237.97;;;19.98;100.00
55289;BME280;41154;45.394;5.734;2023-10-13T10:41:29;97222.94;;;20.37;100.00
55289;BME280;41154;45.394;5.734;2023-10-13T10:44:08;97226.09;;;20.31;100.00
55289;BME280;41154;45.394;5.734;2023-10-13T10:46:34;97227.00;;;20.26;100.00
55289;BME280;41154;45.394;5.734;2023-10-13T10:49:07;97230.47;;;20.04;100.00
55289;BME280;41154;45.394;5.734;2023-10-13T10:51:40;97230.78;;;20.39;100.00
55289;BME280;41154;45.394;5.734;2023-10-13T10:54:20;97229.72;;;20.26;100.00
55289;BME280;41154;45.394;5.734;2023-10-13T10:56:47;97221.69;;;20.07;100.00
55289;BME280;41154;45.394;5.734;2023-10-13T10:59:18;97220.78;;;20.11;100.00
55289;BME280;41154;45.394;5.734;2023-10-13T11:01:46;97218.16;;;20.06;100.00
55289;BME280;41154;45.394;5.734;2023-10-13T11:04:13;97214.56;;;20.34;100.00
55289;BME280;41154;45.394;5.734;2023-10-13T11:06:53;97210.06;;;20.29;100.00
55289;BME280;41154;45.394;5.734;2023-10-13T11:09:32;97209.47;;;20.18;100.00
55289;BME280;41154;45.394;5.734;2023-10-13T11:12:13;97208.94;;;20.53;100.00
55289;BME280;41154;45.394;5.734;2023-10-13T11:15:00;97204.34;;;20.62;100.00
55289;BME280;41154;45.394;5.734;2023-10-13T11:17:26;97201.94;;;20.83;100.00
55289;BME280;41154;45.394;5.734;2023-10-13T11:20:13;97191.53;;;20.62;100.00
55289;BME280;41154;45.394;5.734;2023-10-13T11:22:52;97186.34;;;20.52;100.00
55289;BME280;41154;45.394;5.734;2023-10-13T11:25:22;97186.66;;;20.51;100.00
55289;BME280;41154;45.394;5.734;2023-10-13T11:27:48;97176.69;;;20.69;100.00
55289;BME280;41154;45.394;5.734;2023-10-13T11:30:14;97184.47;;;20.84;100.00
55289;BME280;41154;45.394;5.734;2023-10-13T11:33:02;97171.28;;;21.09;100.00
55289;BME280;41154;45.394;5.734;2023-10-13T11:35:32;97167.63;;;21.22;100.00
55289;BME280;41154;45.394;5.734;2023-10-13T11:38:16;97169.72;;;21.25;100.00
55289;BME280;41154;45.394;5.734;2023-10-13T11:40:54;97163.78;;;21.23;100.00
55289;BME280;41154;45.394;5.734;2023-10-13T11:43:33;97161.78;;;21.46;100.00
55289;BME280;41154;45.394;5.734;2023-10-13T11:46:09;97149.56;;;21.44;100.00
55289;BME280;41154;45.394;5.734;2023-10-13T11:48:35;97154.06;;;21.48;100.00
55289;BME280;41154;45.394;5.734;2023-10-13T11:51:05;97142.91;;;21.59;100.00
55289;BME280;41154;45.394;5.734;2023-10-13T11:53:38;97146.28;;;21.56;100.00
55289;BME280;41154;45.394;5.734;2023-10-13T11:56:05;97149.16;;;21.59;100.00
55289;BME280;41154;45.394;5.734;2023-10-13T11:58:40;97140.13;;;21.41;100.00
55289;BME280;41154;45.394;5.734;2023-10-13T12:01:06;97144.50;;;21.51;100.00
55289;BME280;41154;45.394;5.734;2023-10-13T12:03:44;97136.78;;;21.53;100.00
55289;BME280;41154;45.394;5.734;2023-10-13T12:06:30;97126.06;;;21.57;100.00
55289;BME280;41154;45.394;5.734;2023-10-13T12:09:07;97119.28;;;21.63;100.00
55289;BME280;41154;45.394;5.734;2023-10-13T12:11:56;97126.22;;;21.78;100.00
55289;BME280;41154;45.394;5.734;2023-10-13T12:14:27;97122.84;;;21.72;100.00
55289;BME280;41154;45.394;5.734;2023-10-13T12:17:02;97115.78;;;21.71;100.00
55289;BME280;41154;45.394;5.734;2023-10-13T12:19:36;97097.00;;;21.96;100.00
55289;BME280;41154;45.394;5.734;2023-10-13T12:22:04;97110.31;;;21.80;100.00
55289;BME280;41154;45.394;5.734;2023-10-13T12:24:34;97109.38;;;21.76;100.00
55289;BME280;41154;45.394;5.734;2023-10-13T12:27:03;97107.44;;;21.76;100.00
55289;BME280;41154;45.394;5.734;2023-10-13T12:29:49;97101.66;;;21.86;100.00
55289;BME280;41154;45.394;5.734;2023-10-13T12:32:18;97096.34;;;22.07;100.00
55289;BME280;41154;45.394;5.734;2023-10-13T12:34:56;97099.09;;;21.90;100.00
55289;BME280;41154;45.394;5.734;2023-10-13T12:37:28;97091.03;;;21.94;100.00
55289;BME280;41154;45.394;5.734;2023-10-13T12:40:10;97094.25;;;21.78;100.00
55289;BME280;41154;45.394;5.734;2023-10-13T12:42:55;97090.41;;;21.79;100.00
55289;BME280;41154;45.394;5.734;2023-10-13T12:45:44;97092.31;;;21.87;100.00
55289;BME280;41154;45.394;5.734;2023-10-13T12:48:29;97091.22;;;21.88;100.00
55289;BME280;41154;45.394;5.734;2023-10-13T12:51:13;97079.47;;;21.79;100.00
55289;BME280;41154;45.394;5.734;2023-10-13T12:53:52;97067.91;;;21.82;100.00
55289;BME280;41154;45.394;5.734;2023-10-13T12:56:19;97065.34;;;21.95;100.00
55289;BME280;41154;45.394;5.734;2023-10-13T12:58:52;97051.97;;;22.11;100.00
55289;BME280;41154;45.394;5.734;2023-10-13T13:01:18;97055.53;;;22.02;100.00
55289;BME280;41154;45.394;5.734;2023-10-13T13:03:46;97054.41;;;22.12;100.00
55289;BME280;41154;45.394;5.734;2023-10-13T13:06:21;97044.44;;;22.07;100.00
55289;BME280;41154;45.394;5.734;2023-10-13T13:08:56;97043.00;;;22.01;100.00
55289;BME280;41154;45.394;5.734;2023-10-13T13:11:23;97047.97;;;22.17;100.00
55289;BME280;41154;45.394;5.734;2023-10-13T13:13:49;97048.63;;;22.05;100.00
55289;BME280;41154;45.394;5.734;2023-10-13T13:16:16;97046.06;;;22.08;100.00
55289;BME280;41154;45.394;5.734;2023-10-13T13:18:52;97052.31;;;22.09;100.00
55289;BME280;41154;45.394;5.734;2023-10-13T13:21:22;97046.97;;;22.21;100.00
55289;BME280;41154;45.394;5.734;2023-10-13T13:23:51;97047.16;;;22.07;100.00
55289;BME280;41154;45.394;5.734;2023-10-13T13:26:17;97042.34;;;22.13;100.00
55289;BME280;41154;45.394;5.734;2023-10-13T13:28:46;97039.91;;;22.20;100.00
55289;BME280;41154;45.394;5.734;2023-10-13T13:31:19;97041.06;;;22.11;100.00
55289;BME280;41154;45.394;5.734;2023-10-13T13:33:50;97028.56;;;22.01;100.00
55289;BME280;41154;45.394;5.734;2023-10-13T13:36:16;97040.78;;;22.03;100.00
55289;BME280;41154;45.394;5.734;2023-10-13T13:38:43;97035.13;;;22.08;100.00
55289;BME280;41154;45.394;5.734;2023-10-13T13:41:15;97040.13;;;21.98;100.00
55289;BME280;41154;45.394;5.734;2023-10-13T13:43:44;97037.38;;;22.06;100.00
55289;BME280;41154;45.394;5.734;2023-10-13T13:46:16;97028.72;;;21.96;100.00
55289;BME280;41154;45.394;5.734;2023-10-13T13:48:42;97028.72;;;21.96;100.00